Palembang
Home > Kaskuser Regional > INDONESIA > SUMATERA > Palembang > ▓▓▒▒ Radar Cuaca Palembang dan Sekitarnya ▒▒▓▓
Total Views: 14903 Share : Facebook ShareFacebook Twitter ShareTwitter Google+ ShareGoogle+
Page 6 of 64 |  < 1 2 3 4 5 6 7 8 9 10 11 >  Last ›

dianabazz - 21/06/2011 10:22 PM
#101

▓▓▒▒ Radar Cuaca Palembang dan Sekitarnya ▒▒▓▓
dianabazz - 21/06/2011 10:25 PM
#102

▓▓▒▒ Radar Cuaca Palembang dan Sekitarnya ▒▒▓▓
dianabazz - 21/06/2011 11:03 PM
#103

Quote:

CARA MEMBACA TAFOR UNTUK PENERBANGAN

FTID32 WIPP 201100
TAF WIPP 201100Z 2012/2112 13006KT 9999 SCT018 BECMG 2018/2020 00000KT 6000 FEW015 BECMG 2101/2103 12009KT 9999 NSW SCT017=

ada dua bagian tafor yaitu :

[*]Heading FTID32 WIPP 201100
[*]Body TAF WIPP 201100Z 2012/2112 13006KT 9999 SCT018 BECMG 2018/2020 00000KT 6000 FEW015 BECMG 2101/2103 12009KT 9999 NSW SCT017=



mari kita kupas satu persatu:
Quote:
Original Posted By Heading]
Heading FTID32 WIPP 201100

[*]FTID32 adalah kode untuk Tafor
[*]WIPP adalah kode untuk Stasiun Palembang
[*]201100 berarti 20 (tanggal), 11 (jam dalam UTC bila ingin dalam WIB ditambah 7), 00 (menit)




Quote:
Original Posted By Body]
Body TAF WIPP 201100Z 2012/2112 13006KT 9999 SCT018 BECMG 2018/2020 00000KT 6000 FEW015 BECMG 2101/2103 12009KT 9999 NSW SCT017=

[*]TAF artinya Tafor
[*]WIPP adalah kode untuk Stasiun Palembang
[*]201100Z berarti 20 (tanggal), 11 (jam dalam UTC bila ingin dalam WIB ditambah 7), 00 (menit), Z (Zulu / jam UTC)
[*]2012/2112 berarti Tafor berlaku dari tgl 20 jam 12.00 UTC sampai tgl 21 jam 12.00 UTC
[*]13006KT berarti arah angin dari 130 derajat dan kecepatan angin 06 (baca 6) dan KT berarti "Knot"(satuan kecepatan)
[*]9999 berarti Visibility / jarak pandang adalah 10 kilometer lebih. Berikut listnya:

[*]9999 jarak pandang 10 Km atau lebih
[*]8000 jarak pandang 8 Km
[*]7000 jarak pandang 7 Km
[*]dst sampai 1000 jarak pandang 1 Km
[*]0900 jarak pandang 900 m
[*]0800 jarak pandang 800 m
[*]dst sampai 0100 jarak pandang 100 m
[*]0090 jarak pandang 90 m
[*]0080 jarak pandang 80 m
[*]dst sampai 0010 jarak pandang 10 m


[*]SCT018 berarti awan rendah dalam kondisi Scater, yaitu langit tertutup 1/4 - 3/4 awan dan 018 berarti ketinggian awan 1800 Feet Berikut listnya
kode awan
[*]NLC berarti No Low Cloud (tidak ada awan rendah)
[*]FEW berarti langit tertutup dibawah 1/4 awan
[*]SCT berarti Scater, yaitu langit tertutup 1/4 sampai 3/4 awan
[*]BKN berarti Broken, yaitu langit tertutup lebih dari 3/4 awan
[*]OVC berarti Overcast, yaitu keseluruhan langit tertutup awan


Berikut list ketinggian awan

[*]001 berarti 100 Feet
[*]002 berarti 200 Feet
[*] dst sampai 009 berarti 900 Feet
[*]010 berarti 1000 Feet
[*]011 berarti 1100 Feet
[*]012 berarti 1200 Feet
[*]dst sampai 019 berarti 1900 Feet
[*]020 berarti 2000 Feet, dst saya kira Anda pasti mengerti karena sangat banyak bila mau dituliskan semua


[*]BECMG berarti Becoming atau perkiraan keadaan cuaca
[*]setelah BECMG adalah prediksi cuaca berikutnya contoh :
BECMG 2018/2020 00000KT 6000 FEW015
Tgl 20 jam 18.00 UTC sampai tgl 20 jam 20.00 UTC, kecepatan angin (00000KT) Calm, visibility 6 kilometer, langit tertutup 1/4 awan dengan ketinggian 1500 Feet
[*]bila prediksi tidak terpenuhi maka akan kembali ke prediksi pertama yaitu 2012/2112
[*]NSW berarti No Significant Weather artinya tidak ada cuaca bermakna
[*]= (sama dengan) berarti tafor selesai


[/quote]


[quote=note]
Cuaca bermakna di letakkan setelah visibility/jarak pandang , contoh sbb :
FTID32 WIPP 232333
TAF WIPP 232330Z 2400/2424 14007KT 5000 HZ FEW016 BECMG 2401/2403 15009KT 9999 NSW SCT016 TEMPO 2409/2413 17010KT 7000 -RA FEW020CB SCT015 BECMG 2419/2421 5000 HZ SCT015=

perhatikan yg ditebalkan HZ berarti Haze dan -RA ini berarti ada hujan ringan.
berikut list nya

[*]-RA berarti hujan ringan
[*]RA berarti hujan
[*]TS berarti Thunder Storm atau badai guntur (suara petir/geledek)
[*]TSRA berarti hujan yang disertai badan guntur
[*]HZ berarti Haze

BR berarti Mist

FOG berarti Kabut tebal dengan jarak pandang dibawah 1 Km dengan kelembabab 98-100



FVckIHacker - 21/06/2011 11:25 PM
#104

Di Tempat q Hujan... hammer:
aesdm - 22/06/2011 12:22 AM
#105

besok mendong bearti hammers
amod - 22/06/2011 11:00 AM
#106

semogo hari ni ujan o
ujan dak om hari ni o
dianabazz - 22/06/2011 12:33 PM
#107

Quote:
Original Posted By amod
semogo hari ni ujan o
ujan dak om hari ni o


kemungkinan ujan ado, tp mungkin hujan ringan
suhudalsim - 22/06/2011 02:08 PM
#108

Quote:
Original Posted By dianabazz
kemungkinan ujan ado, tp mungkin hujan ringan


smg ujan deres ye om o
panas trs kota kito ni o
dianabazz - 22/06/2011 04:52 PM
#109

Quote:
Original Posted By suhudalsim
smg ujan deres ye om o
panas trs kota kito ni o


klo ujan deres caknyo lah kecik kemungkinan mang.sekalipun deres paling bentar be
angin lah kenceng jadi butiran air di awan tu dak terlalu banyak
amod - 22/06/2011 05:15 PM
#110

Quote:
Original Posted By dianabazz
klo ujan deres caknyo lah kecik kemungkinan mang.sekalipun deres paling bentar be
angin lah kenceng jadi butiran air di awan tu dak terlalu banyak


yah dak jadi o
wjr panas nian bedengkang om o

la lamo sih dak jingok ujan o
tobeli - 22/06/2011 08:14 PM
#111

Quote:
Original Posted By amod

yah dak jadi o
wjr panas nian bedengkang om o

la lamo sih dak jingok ujan o


tergantung rai jg bul o
dianabazz - 22/06/2011 11:20 PM
#112

Quote:
Original Posted By amod


yah dak jadi o
wjr panas nian bedengkang om o

la lamo sih dak jingok ujan o

namonyo lah nak masuk kemarau mang. sabar bae gek jg bakal turun. tp dak tau kapan D

Quote:
Original Posted By tobeli
tergantung rai jg bul o

aq dak melok-melok ye Peace:
aesdm - 22/06/2011 11:47 PM
#113

apdetan ntok besok ado dk mang? amazed:
dianabazz - 23/06/2011 12:33 AM
#114

Quote:
Original Posted By aesdm
apdetan ntok besok ado dk mang? amazed:


Prakiraan besok mang

▓▓▒▒ Radar Cuaca Palembang dan Sekitarnya ▒▒▓▓
dianabazz - 23/06/2011 12:37 AM
#115

Update malam
aesdm - 23/06/2011 03:17 AM
#116

Quote:
Original Posted By dianabazz
Prakiraan besok mang


mangstab matabelo:

pacak bejalan ee
secaro cuma berawan ngacir:
dianabazz - 24/06/2011 08:23 AM
#117

▓▓▒▒ Radar Cuaca Palembang dan Sekitarnya ▒▒▓▓
dianabazz - 24/06/2011 08:26 AM
#118

FTID32 WIPP 232333
TAF WIPP 232330Z 2400/2424 14007KT 5000 HZ FEW016 BECMG 2401/2403 15009KT 9999 NSW SCT016 TEMPO 2409/2413 17010KT 7000 -RA FEW020CB SCT015 BECMG 2419/2421 5000 HZ SC015=


Bingung cara bacanya???bingungs
klik aja Baca TAFOR
dianabazz - 24/06/2011 10:13 AM
#119

▓▓▒▒ Radar Cuaca Palembang dan Sekitarnya ▒▒▓▓
dianabazz - 24/06/2011 10:22 AM
#120

Pencitraan satelit 24 Juni 2011 Pukul 00.00 UTC atau 07.00 WIB

▓▓▒▒ Radar Cuaca Palembang dan Sekitarnya ▒▒▓▓
Page 6 of 64 |  < 1 2 3 4 5 6 7 8 9 10 11 >  Last ›
Home > Kaskuser Regional > INDONESIA > SUMATERA > Palembang > ▓▓▒▒ Radar Cuaca Palembang dan Sekitarnya ▒▒▓▓